createdAt,value
2023-02-13T00:00:13.404Z,57.24
2023-02-13T00:05:18.417Z,57.51
2023-02-13T00:10:22.039Z,56.78
2023-02-13T00:15:25.538Z,57.00
2023-02-13T00:20:30.344Z,56.36
2023-02-13T00:25:33.732Z,56.47
2023-02-13T00:30:37.075Z,56.93
2023-02-13T00:35:41.851Z,56.34
2023-02-13T00:40:45.220Z,56.13
2023-02-13T00:45:48.611Z,56.41
2023-02-13T00:50:53.634Z,57.07
2023-02-13T00:55:57.065Z,57.06
2023-02-13T01:01:00.975Z,56.30
2023-02-13T01:06:06.416Z,56.95
2023-02-13T01:11:09.794Z,56.73
2023-02-13T01:16:16.072Z,56.31
2023-02-13T01:21:23.467Z,56.41
2023-02-13T01:26:26.835Z,56.29
2023-02-13T01:31:30.344Z,57.37
2023-02-13T01:36:35.152Z,56.46
2023-02-13T01:41:38.531Z,56.85
2023-02-13T01:46:44.708Z,57.29
2023-02-13T01:51:51.251Z,56.31
2023-02-13T01:56:56.488Z,57.13
2023-02-13T02:02:00.136Z,57.48
2023-02-13T02:07:08.248Z,56.42
2023-02-13T02:12:17.446Z,57.40
2023-02-13T02:17:21.375Z,56.94
2023-02-13T02:22:48.169Z,56.79
2023-02-13T02:28:11.173Z,57.20
2023-02-13T02:33:33.278Z,56.54
2023-02-13T02:38:45.423Z,56.53
2023-02-13T02:43:57.195Z,56.49
2023-02-13T02:49:23.803Z,57.30
2023-02-13T02:54:48.865Z,57.17
2023-02-13T03:00:10.009Z,57.71
2023-02-13T03:05:37.959Z,56.64
2023-02-13T03:10:58.769Z,56.52
2023-02-13T03:16:19.914Z,56.62
2023-02-13T03:21:49.118Z,57.06
2023-02-13T03:26:58.121Z,56.61
2023-02-13T03:32:09.258Z,57.15
2023-02-13T03:37:33.950Z,56.37
2023-02-13T03:42:39.334Z,57.37
2023-02-13T03:47:44.496Z,56.74
2023-02-13T03:52:53.767Z,56.85
2023-02-13T03:58:18.347Z,57.48
2023-02-13T04:03:25.801Z,57.39
2023-02-13T04:08:30.812Z,56.65
2023-02-13T04:13:36.656Z,57.38
2023-02-13T04:18:40.297Z,57.25
2023-02-13T04:23:45.064Z,57.05
2023-02-13T04:28:48.435Z,57.34
2023-02-13T04:33:51.822Z,57.48
2023-02-13T04:38:56.660Z,57.47
2023-02-13T04:44:00.177Z,57.17
2023-02-13T04:49:03.592Z,57.22
2023-02-13T04:54:08.411Z,56.67
2023-02-13T04:59:11.729Z,57.05
2023-02-13T05:04:16.468Z,57.07
2023-02-13T05:09:21.311Z,56.69
2023-02-13T05:14:24.719Z,56.28
2023-02-13T05:19:28.065Z,56.78
2023-02-13T05:24:32.849Z,56.17
2023-02-13T05:29:36.267Z,57.02
2023-02-13T05:34:39.635Z,56.67
2023-02-13T05:39:44.400Z,57.30
2023-02-13T05:44:47.744Z,57.39
2023-02-13T05:49:51.105Z,56.73
2023-02-13T05:54:55.842Z,56.65
2023-02-13T05:59:59.201Z,57.37
2023-02-13T06:05:02.599Z,56.88
2023-02-13T06:10:08.626Z,56.88
2023-02-13T06:15:12.001Z,57.09
2023-02-13T06:20:15.406Z,56.58
2023-02-13T06:25:20.564Z,57.39
2023-02-13T06:30:24.265Z,56.63
2023-02-13T06:35:27.690Z,56.74
2023-02-13T06:40:32.435Z,57.63
2023-02-13T06:45:35.780Z,57.05
2023-02-13T06:50:39.165Z,57.01
2023-02-13T06:55:43.945Z,56.91
2023-02-13T07:00:47.596Z,57.37
2023-02-13T07:05:52.169Z,57.56
2023-02-13T07:10:57.281Z,57.57
2023-02-13T07:16:02.286Z,57.80
2023-02-13T07:21:05.827Z,57.22
2023-02-13T07:26:11.267Z,56.85
2023-02-13T07:31:14.777Z,57.42
2023-02-13T07:36:18.322Z,57.35
2023-02-13T07:41:26.111Z,57.07
2023-02-13T07:46:29.526Z,56.65
2023-02-13T07:51:32.903Z,57.71
2023-02-13T07:56:37.660Z,57.73
2023-02-13T08:01:41.063Z,57.16
2023-02-13T08:06:44.544Z,57.70
2023-02-13T08:11:54.995Z,56.61
2023-02-13T08:17:00.171Z,57.20
2023-02-13T08:22:03.525Z,57.41
2023-02-13T08:27:08.359Z,57.17
2023-02-13T08:32:11.755Z,57.73
2023-02-13T08:37:15.209Z,57.03
2023-02-13T08:42:20.170Z,57.42
2023-02-13T08:47:23.545Z,56.83
2023-02-13T08:52:26.932Z,57.38
2023-02-13T08:57:32.432Z,57.63
2023-02-13T09:02:35.997Z,56.74
2023-02-13T09:07:39.369Z,56.81
2023-02-13T09:12:44.134Z,56.86
2023-02-13T09:17:47.509Z,57.40
2023-02-13T09:22:50.905Z,56.90
2023-02-13T09:27:55.679Z,58.02
2023-02-13T09:32:59.043Z,56.69
2023-02-13T09:38:02.404Z,57.84
2023-02-13T09:43:12.451Z,57.56
2023-02-13T09:48:20.716Z,57.74
2023-02-13T09:53:25.731Z,57.72
2023-02-13T09:58:40.852Z,57.41
2023-02-13T10:03:46.579Z,56.97
2023-02-13T10:09:01.001Z,57.30
2023-02-13T10:14:13.589Z,57.58
2023-02-13T10:19:32.440Z,57.11
2023-02-13T10:24:40.349Z,57.33
2023-02-13T10:30:06.340Z,57.92
2023-02-13T10:35:19.787Z,57.48
2023-02-13T10:40:29.311Z,57.70
2023-02-13T10:45:51.395Z,58.06
2023-02-13T10:50:59.247Z,57.67
2023-02-13T10:56:17.701Z,57.37
2023-02-13T11:01:31.264Z,58.06
2023-02-13T11:06:37.901Z,57.32
2023-02-13T11:11:43.999Z,57.92
2023-02-13T11:16:56.509Z,58.02
2023-02-13T11:22:03.724Z,57.16
2023-02-13T11:27:12.989Z,57.61
2023-02-13T11:32:23.873Z,58.11
2023-02-13T11:37:29.103Z,57.40
2023-02-13T11:42:34.332Z,57.43
2023-02-13T11:47:41.347Z,57.55
2023-02-13T11:52:45.000Z,57.72
2023-02-13T11:57:57.821Z,57.05
2023-02-13T12:03:02.985Z,57.48
2023-02-13T12:08:10.589Z,56.99
2023-02-13T12:13:16.245Z,57.93
2023-02-13T12:18:27.375Z,57.39
2023-02-13T12:23:35.149Z,57.00
2023-02-13T12:28:53.140Z,57.88
2023-02-13T12:34:21.177Z,57.21
2023-02-13T12:39:28.849Z,58.33
2023-02-13T12:44:52.216Z,57.36
2023-02-13T12:50:30.138Z,58.42
2023-02-13T12:55:50.536Z,58.63
2023-02-13T13:00:58.881Z,58.11
2023-02-13T13:06:16.346Z,57.21
2023-02-13T13:11:35.689Z,57.65
2023-02-13T13:16:45.450Z,58.64
2023-02-13T13:21:54.649Z,57.33
2023-02-13T13:26:59.020Z,58.22
2023-02-13T13:32:04.976Z,58.26
2023-02-13T13:37:14.978Z,57.83
2023-02-13T13:42:21.498Z,58.49
2023-02-13T13:47:39.201Z,58.46
2023-02-13T13:53:08.093Z,58.07
2023-02-13T13:58:22.795Z,58.05
2023-02-13T14:03:36.620Z,58.91
2023-02-13T14:09:03.156Z,58.17
2023-02-13T14:14:51.008Z,58.23
2023-02-13T14:19:54.511Z,57.68
2023-02-13T14:25:00.693Z,58.57
2023-02-13T14:30:05.737Z,58.21
2023-02-13T14:35:18.421Z,58.31
2023-02-13T14:40:45.814Z,58.51
2023-02-13T14:45:51.163Z,59.18
2023-02-13T14:50:57.074Z,58.87
2023-02-13T14:56:06.861Z,58.46
2023-02-13T15:01:23.424Z,58.49
2023-02-13T15:06:28.764Z,58.66
2023-02-13T15:11:43.216Z,58.49
2023-02-13T15:16:49.144Z,58.77
2023-02-13T15:21:55.277Z,58.70
2023-02-13T15:27:05.047Z,58.15
2023-02-13T15:32:20.307Z,57.95
2023-02-13T15:37:25.567Z,58.22
2023-02-13T15:42:30.421Z,58.11
2023-02-13T15:47:34.702Z,58.79
2023-02-13T15:52:39.541Z,59.54
2023-02-13T15:57:44.325Z,58.98
2023-02-13T16:02:48.905Z,58.47
2023-02-13T16:07:53.861Z,58.25
2023-02-13T16:12:59.590Z,57.99
2023-02-13T16:18:04.041Z,58.66
2023-02-13T16:23:09.022Z,59.47
2023-02-13T16:28:19.694Z,58.33
2023-02-13T16:33:25.321Z,59.20
2023-02-13T16:38:35.165Z,58.92
2023-02-13T16:43:46.284Z,59.76
2023-02-13T16:49:05.630Z,59.23
2023-02-13T16:54:19.620Z,59.35
2023-02-13T16:59:30.219Z,58.17
2023-02-13T17:04:33.613Z,59.23
2023-02-13T17:09:36.970Z,58.98
2023-02-13T17:14:41.755Z,59.63
2023-02-13T17:19:45.194Z,59.51
2023-02-13T17:24:48.577Z,58.51
2023-02-13T17:29:53.457Z,58.46
2023-02-13T17:34:56.931Z,59.26
2023-02-13T17:40:00.333Z,58.82
2023-02-13T17:45:05.536Z,59.28
2023-02-13T17:50:10.916Z,59.04
2023-02-13T17:55:17.921Z,58.69
2023-02-13T18:00:23.269Z,59.96
2023-02-13T18:05:27.013Z,58.58
2023-02-13T18:10:33.590Z,59.04
2023-02-13T18:15:41.951Z,59.43
2023-02-13T18:20:45.763Z,59.81
2023-02-13T18:25:49.137Z,59.20
2023-02-13T18:30:53.975Z,58.79
2023-02-13T18:36:01.596Z,59.41
2023-02-13T18:41:05.467Z,59.23
2023-02-13T18:46:10.264Z,59.85
2023-02-13T18:51:13.618Z,59.17
2023-02-13T18:56:16.979Z,59.22
2023-02-13T19:01:22.717Z,60.20
2023-02-13T19:06:26.877Z,59.23
2023-02-13T19:11:30.660Z,60.47
2023-02-13T19:16:36.503Z,60.08
2023-02-13T19:21:40.308Z,59.52
2023-02-13T19:26:44.695Z,60.52
2023-02-13T19:31:49.585Z,59.71
2023-02-13T19:36:53.021Z,58.84
2023-02-13T19:41:56.430Z,60.37
2023-02-13T19:47:01.177Z,60.09
2023-02-13T19:52:04.773Z,59.83
2023-02-13T19:57:08.171Z,59.53
2023-02-13T20:02:15.642Z,59.96
2023-02-13T20:07:18.979Z,60.45
2023-02-13T20:12:23.089Z,59.04
2023-02-13T20:17:27.911Z,60.39
2023-02-13T20:22:31.255Z,59.83
2023-02-13T20:32:42.061Z,59.45
2023-02-13T20:37:46.324Z,59.33
2023-02-13T20:42:49.673Z,59.98
2023-02-13T20:47:54.505Z,59.63
2023-02-13T20:52:58.392Z,59.27
2023-02-13T20:58:01.761Z,60.21
2023-02-13T21:03:06.595Z,59.15
2023-02-13T21:08:10.072Z,60.13
2023-02-13T21:13:13.424Z,60.06
2023-02-13T21:18:20.976Z,60.24
2023-02-13T21:23:24.736Z,59.88
2023-02-13T21:28:28.104Z,59.28
2023-02-13T21:33:32.866Z,59.09
2023-02-13T21:38:36.744Z,59.09
2023-02-13T21:43:40.194Z,60.33
2023-02-13T21:48:45.159Z,60.72
2023-02-13T21:53:49.335Z,60.55
2023-02-13T21:58:53.141Z,59.89
2023-02-13T22:04:00.820Z,60.22
2023-02-13T22:09:06.799Z,60.29
2023-02-13T22:14:12.844Z,60.22
2023-02-13T22:19:18.088Z,59.08
2023-02-13T22:24:21.495Z,59.68
2023-02-13T22:29:27.036Z,59.38
2023-02-13T22:34:31.792Z,59.91
2023-02-13T22:39:35.203Z,60.32
2023-02-13T22:44:38.533Z,60.17
2023-02-13T22:49:43.360Z,60.00
2023-02-13T22:54:46.692Z,60.71
2023-02-13T22:59:50.044Z,59.84
2023-02-13T23:04:54.827Z,59.03
2023-02-13T23:09:58.203Z,60.28
2023-02-13T23:15:01.613Z,60.24
2023-02-13T23:20:07.735Z,59.94
2023-02-13T23:25:11.223Z,59.23
2023-02-13T23:30:16.236Z,59.29
2023-02-13T23:35:21.199Z,59.22
2023-02-13T23:40:24.576Z,59.72
2023-02-13T23:45:27.974Z,60.01
2023-02-13T23:50:32.746Z,60.10
2023-02-13T23:55:36.113Z,59.91
